Time;durP1;ratioP1;P1;durP2;ratioP2;P2;SDS_P1;SDS_P2;PMS_P1;PMS_P2;Temp;Humidity;BMP_temperature;BMP_pressure;BME280_temperature;BME280_humidity;BME280_pressure;Samples;Min_cycle;Max_cycle;Signal;HPM_P1;HPM_P2
2023/05/04 00:00:32;;;;;;;;;;;;;;;26.76;40.98;94500.91;5007402;28;7731;-62
2023/05/04 00:03:32;;;;;;;;;;;;;;;26.77;40.93;94499.66;5000667;28;7037;-62
2023/05/04 00:06:33;;;;;;;;;;;;;;;26.76;40.54;94495.38;5012374;28;9186;-62
2023/05/04 00:09:10;;;;;;;;;;;;;;;26.76;40.51;94489.88;5019132;28;7234;-62
2023/05/04 00:11:36;;;;;;;;;;;;;;;26.74;40.87;94479.34;5034605;28;9905;-62
2023/05/04 00:14:04;;;;;;;;;;;;;;;26.73;40.57;94482.63;5022119;28;7318;-62
2023/05/04 00:17:01;;;;;;;;;;;;;;;26.73;40.58;94483.34;5032718;28;7434;-62
2023/05/04 00:19:39;;;;;;;;;;;;;;;26.72;40.55;94484.59;5000556;28;9068;-62
2023/05/04 00:22:14;;;;;;;;;;;;;;;26.73;40.93;94482.63;4984021;28;9074;-62
2023/05/04 00:24:42;;;;;;;;;;;;;;;26.71;40.61;94485.09;4977049;28;7459;-61
2023/05/04 00:27:31;;;;;;;;;;;;;;;26.71;40.72;94480.34;4986678;28;7143;-62
2023/05/04 00:30:44;;;;;;;;;;;;;;;26.71;40.56;94485.84;4978201;28;7317;-62
2023/05/04 00:33:09;;;;;;;;;;;;;;;26.70;40.72;94480.88;4933496;28;8725;-62
2023/05/04 00:35:46;;;;;;;;;;;;;;;26.67;41.18;94479.88;4935934;28;8638;-61
2023/05/04 00:38:20;;;;;;;;;;;;;;;26.69;40.38;94477.34;4921864;29;7050;-62
2023/05/04 00:41:07;;;;;;;;;;;;;;;26.69;40.59;94469.06;4920567;29;7001;-62
2023/05/04 00:43:51;;;;;;;;;;;;;;;26.67;40.49;94473.59;4904643;29;7251;-62
2023/05/04 00:46:31;;;;;;;;;;;;;;;26.67;40.62;94479.13;4924204;29;7211;-62
2023/05/04 00:49:20;;;;;;;;;;;;;;;26.65;40.69;94476.13;4940550;28;7290;-63
2023/05/04 00:52:15;;;;;;;;;;;;;;;26.65;40.70;94479.66;4918863;29;7363;-62
2023/05/04 00:54:48;;;;;;;;;;;;;;;26.65;40.27;94478.91;4931559;29;7497;-62
2023/05/04 00:57:31;;;;;;;;;;;;;;;26.64;40.77;94478.16;4946518;28;7302;-61
2023/05/04 01:00:23;;;;;;;;;;;;;;;26.65;40.74;94474.13;4936328;28;8763;-63
2023/05/04 01:03:21;;;;;;;;;;;;;;;26.65;40.72;94484.41;4944472;28;9108;-62
2023/05/04 01:06:28;;;;;;;;;;;;;;;26.63;40.91;94481.44;4935608;28;9642;-62
2023/05/04 01:09:38;;;;;;;;;;;;;;;26.64;40.38;94477.41;4869102;29;8707;-63
2023/05/04 01:12:16;;;;;;;;;;;;;;;26.62;41.06;94479.94;4903029;29;8822;-62
2023/05/04 01:14:44;;;;;;;;;;;;;;;26.60;40.80;94483.19;4904901;29;8279;-62
2023/05/04 01:17:39;;;;;;;;;;;;;;;26.60;40.81;94485.22;4914832;29;7823;-62
2023/05/04 01:20:21;;;;;;;;;;;;;;;26.59;40.76;94480.97;4878198;29;9286;-62
2023/05/04 01:22:58;;;;;;;;;;;;;;;26.56;40.71;94473.72;4856053;29;7053;-62
2023/05/04 01:25:42;;;;;;;;;;;;;;;26.57;40.90;94470.44;4859378;29;9072;-62
2023/05/04 01:28:17;;;;;;;;;;;;;;;26.58;40.27;94473.94;4875049;29;7503;-62
2023/05/04 01:30:52;;;;;;;;;;;;;;;26.58;40.16;94473.94;4872650;29;9055;-63
2023/05/04 01:33:21;;;;;;;;;;;;;;;26.58;40.65;94473.94;4898179;29;9620;-62
2023/05/04 01:35:48;;;;;;;;;;;;;;;26.57;40.57;94473.22;4886599;29;7070;-62
2023/05/04 01:38:17;;;;;;;;;;;;;;;26.55;40.81;94470.22;4907571;29;9074;-61
2023/05/04 01:41:03;;;;;;;;;;;;;;;26.56;40.80;94479.22;4911713;29;7269;-62
2023/05/04 01:43:48;;;;;;;;;;;;;;;26.54;41.28;94479.75;4896282;29;7031;-62
2023/05/04 01:46:23;;;;;;;;;;;;;;;26.51;41.28;94475.25;4940954;28;9481;-62
2023/05/04 01:48:59;;;;;;;;;;;;;;;26.51;40.77;94478.00;4919408;29;8743;-62
2023/05/04 01:51:26;;;;;;;;;;;;;;;26.52;40.94;94473.25;4927468;29;7994;-62
2023/05/04 01:53:55;;;;;;;;;;;;;;;26.53;41.13;94477.50;4932061;29;9301;-62
2023/05/04 01:56:21;;;;;;;;;;;;;;;26.53;40.83;94478.28;4954084;28;9227;-63
2023/05/04 01:58:47;;;;;;;;;;;;;;;26.51;40.89;94475.25;5021896;28;8690;-62
2023/05/04 02:01:40;;;;;;;;;;;;;;;26.52;41.29;94476.75;5032628;28;7805;-63
2023/05/04 02:05:00;;;;;;;;;;;;;;;26.51;41.20;94491.06;4994090;28;6867;-62
2023/05/04 02:07:35;;;;;;;;;;;;;;;26.49;41.34;94482.56;4994640;28;7498;-63
2023/05/04 02:10:22;;;;;;;;;;;;;;;26.48;41.18;94481.81;4994048;28;7254;-62
2023/05/04 02:13:09;;;;;;;;;;;;;;;26.49;41.21;94471.53;4981502;28;8719;-63
2023/05/04 02:16:26;;;;;;;;;;;;;;;26.49;40.74;94479.81;5000940;28;7095;-62
2023/05/04 02:18:53;;;;;;;;;;;;;;;26.47;41.16;94479.56;4978159;28;7249;-62
2023/05/04 02:21:20;;;;;;;;;;;;;;;26.46;40.75;94467.78;4989619;28;7100;-63
2023/05/04 02:24:25;;;;;;;;;;;;;;;26.45;40.93;94469.03;4991832;28;7082;-63
2023/05/04 02:27:05;;;;;;;;;;;;;;;26.43;41.26;94479.84;4993104;28;6860;-62
2023/05/04 02:29:33;;;;;;;;;;;;;;;26.43;40.87;94477.09;5004601;28;7102;-62
2023/05/04 02:31:59;;;;;;;;;;;;;;;26.44;41.09;94475.84;4991696;28;9199;-62
2023/05/04 02:34:54;;;;;;;;;;;;;;;26.42;40.66;94483.13;4999403;28;7373;-62
2023/05/04 02:37:29;;;;;;;;;;;;;;;26.42;40.69;94480.38;4985473;28;7581;-62
2023/05/04 02:40:17;;;;;;;;;;;;;;;26.42;41.17;94489.38;4984624;28;7079;-62
2023/05/04 02:42:54;;;;;;;;;;;;;;;26.44;40.82;94486.13;5044786;28;8819;-62
2023/05/04 02:45:28;;;;;;;;;;;;;;;26.42;40.59;94477.59;5023177;28;8962;-62
2023/05/04 02:48:12;;;;;;;;;;;;;;;26.43;40.71;94481.84;5028108;28;9145;-63
2023/05/04 02:50:45;;;;;;;;;;;;;;;26.43;41.06;94485.34;5012589;28;9394;-62
2023/05/04 02:53:29;;;;;;;;;;;;;;;26.43;40.86;94479.09;5021085;28;7261;-62
2023/05/04 02:55:56;;;;;;;;;;;;;;;26.41;41.37;94478.84;5039734;28;8992;-62
2023/05/04 02:58:30;;;;;;;;;;;;;;;26.39;40.77;94473.84;5018203;28;7272;-62
2023/05/04 03:00:58;;;;;;;;;;;;;;;26.42;40.97;94480.38;5045826;28;9317;-62
2023/05/04 03:03:42;;;;;;;;;;;;;;;26.41;40.97;94476.84;5018050;28;6953;-62
2023/05/04 03:06:10;;;;;;;;;;;;;;;26.38;40.68;94468.88;5033723;28;7397;-62
2023/05/04 03:09:08;;;;;;;;;;;;;;;26.40;41.46;94474.63;5032893;28;8972;-62
2023/05/04 03:11:34;;;;;;;;;;;;;;;26.38;41.20;94477.16;5033978;28;9000;-62
2023/05/04 03:14:01;;;;;;;;;;;;;;;26.37;40.92;94478.38;5012976;28;9070;-63
2023/05/04 03:16:58;;;;;;;;;;;;;;;26.36;41.18;94469.38;5011404;28;8994;-62
2023/05/04 03:19:32;;;;;;;;;;;;;;;26.36;40.90;94474.16;4982785;28;7510;-62
2023/05/04 03:22:14;;;;;;;;;;;;;;;26.35;41.24;94473.41;4976091;28;9406;-63
2023/05/04 03:25:15;;;;;;;;;;;;;;;26.34;40.60;94477.41;4965846;28;7956;-62
2023/05/04 03:27:44;;;;;;;;;;;;;;;26.34;40.76;94474.66;4978025;28;8957;-62
2023/05/04 03:30:31;;;;;;;;;;;;;;;26.34;40.65;94471.88;4978091;28;7176;-62
2023/05/04 03:33:01;;;;;;;;;;;;;;;26.33;41.16;94475.91;4965412;28;7205;-62
2023/05/04 03:35:46;;;;;;;;;;;;;;;26.32;41.09;94476.44;4985026;28;8692;-63
2023/05/04 03:38:22;;;;;;;;;;;;;;;26.32;41.17;94473.69;4977640;28;7272;-62
2023/05/04 03:40:49;;;;;;;;;;;;;;;26.32;40.62;94481.97;4985481;28;8941;-62
2023/05/04 03:43:17;;;;;;;;;;;;;;;26.30;40.54;94467.91;4974961;28;7375;-63
2023/05/04 03:46:03;;;;;;;;;;;;;;;26.31;41.02;94467.41;4963017;28;7082;-63
2023/05/04 03:48:33;;;;;;;;;;;;;;;26.31;41.30;94472.19;4956848;28;7321;-63
2023/05/04 03:51:36;;;;;;;;;;;;;;;26.31;40.57;94467.41;4962470;28;8838;-62
2023/05/04 03:54:18;;;;;;;;;;;;;;;26.30;40.56;94465.16;4966229;28;7312;-62
2023/05/04 03:57:15;;;;;;;;;;;;;;;26.29;41.50;94464.44;5028330;28;7501;-62
2023/05/04 04:00:09;;;;;;;;;;;;;;;26.29;40.60;94463.66;5020265;28;7249;-62
2023/05/04 04:02:55;;;;;;;;;;;;;;;26.27;41.44;94460.69;4988607;28;9091;-63
2023/05/04 04:05:23;;;;;;;;;;;;;;;26.25;40.90;94463.97;4971799;28;7079;-62
2023/05/04 04:08:09;;;;;;;;;;;;;;;26.25;41.16;94469.47;4965780;28;7050;-62
2023/05/04 04:10:45;;;;;;;;;;;;;;;26.27;40.65;94477.22;4982752;28;9037;-62
2023/05/04 04:13:12;;;;;;;;;;;;;;;26.26;40.57;94475.72;4969380;28;8699;-61
2023/05/04 04:15:39;;;;;;;;;;;;;;;26.24;40.80;94472.72;4977513;28;9242;-63
2023/05/04 04:18:05;;;;;;;;;;;;;;;26.26;41.30;94473.72;4979790;28;7675;-63
2023/05/04 04:20:33;;;;;;;;;;;;;;;26.25;41.48;94471.47;4966840;28;7256;-62
2023/05/04 04:23:00;;;;;;;;;;;;;;;26.23;41.26;94465.72;4984246;28;9452;-62
2023/05/04 04:25:27;;;;;;;;;;;;;;;26.23;40.76;94471.97;4980218;28;7465;-62
2023/05/04 04:27:53;;;;;;;;;;;;;;;26.24;41.04;94472.72;4971659;28;8981;-62
2023/05/04 04:30:19;;;;;;;;;;;;;;;26.23;41.27;94469.22;4975394;28;9344;-62
2023/05/04 04:32:48;;;;;;;;;;;;;;;26.21;40.71;94468.97;4958245;28;9153;-62
2023/05/04 04:35:16;;;;;;;;;;;;;;;26.22;41.29;94470.50;4974220;28;9666;-61
2023/05/04 04:37:44;;;;;;;;;;;;;;;26.24;40.79;94472.72;4962197;28;7043;-62
2023/05/04 04:40:11;;;;;;;;;;;;;;;26.25;41.32;94468.72;5018019;28;9454;-62
2023/05/04 04:42:37;;;;;;;;;;;;;;;26.25;40.84;94468.72;5019873;28;8028;-62
2023/05/04 04:45:04;;;;;;;;;;;;;;;26.24;40.86;94465.22;5009871;28;7886;-62
2023/05/04 04:47:32;;;;;;;;;;;;;;;26.23;41.03;94466.47;5023293;28;9108;-62
2023/05/04 04:49:57;;;;;;;;;;;;;;;26.24;40.78;94469.97;5020319;28;9271;-63
2023/05/04 04:52:24;;;;;;;;;;;;;;;26.24;41.27;94472.72;5026196;28;9303;-62
2023/05/04 04:54:52;;;;;;;;;;;;;;;26.24;41.08;94478.25;5010695;28;7274;-62
2023/05/04 04:57:21;;;;;;;;;;;;;;;26.25;41.27;94479.75;5011519;28;7248;-63
2023/05/04 04:59:48;;;;;;;;;;;;;;;26.23;41.21;94474.00;5013714;28;9394;-62
2023/05/04 05:02:16;;;;;;;;;;;;;;;26.23;40.61;94479.50;5028758;28;7120;-62
2023/05/04 05:04:42;;;;;;;;;;;;;;;26.22;41.04;94489.03;5027037;28;7266;-63
2023/05/04 05:07:08;;;;;;;;;;;;;;;26.20;40.88;94489.56;5013643;28;6988;-63
2023/05/04 05:09:36;;;;;;;;;;;;;;;26.22;41.34;94483.53;5030643;28;7219;-62
2023/05/04 05:12:04;;;;;;;;;;;;;;;26.23;41.04;94494.03;5022166;28;7182;-61
2023/05/04 05:14:30;;;;;;;;;;;;;;;26.20;40.79;94486.03;5027869;28;7079;-62
2023/05/04 05:17:04;;;;;;;;;;;;;;;26.20;40.42;94492.31;5017999;28;7751;-62
2023/05/04 05:19:35;;;;;;;;;;;;;;;26.20;40.66;94495.06;5026608;28;8296;-62
2023/05/04 05:22:04;;;;;;;;;;;;;;;26.22;40.71;94505.56;5022007;28;7279;-62
2023/05/04 05:24:30;;;;;;;;;;;;;;;26.22;41.27;94502.81;5023809;28;7078;-62
2023/05/04 05:27:28;;;;;;;;;;;;;;;26.20;40.54;94500.59;5021431;28;7274;-62
2023/05/04 05:29:53;;;;;;;;;;;;;;;26.20;40.65;94508.09;4996350;28;8718;-62
2023/05/04 05:32:20;;;;;;;;;;;;;;;26.19;41.26;94517.66;5016432;28;9780;-62
2023/05/04 05:34:48;;;;;;;;;;;;;;;26.20;40.86;94508.09;5006384;28;7245;-62
2023/05/04 05:37:15;;;;;;;;;;;;;;;26.20;41.16;94510.84;5016933;28;9616;-62
2023/05/04 05:39:41;;;;;;;;;;;;;;;26.20;41.35;94510.84;5021458;28;7219;-63
2023/05/04 05:42:07;;;;;;;;;;;;;;;26.23;41.28;94516.09;4994891;28;9113;-62
2023/05/04 05:44:37;;;;;;;;;;;;;;;26.23;40.76;94516.09;5012177;28;9212;-60
2023/05/04 05:47:04;;;;;;;;;;;;;;;26.23;41.27;94512.59;5018764;28;7059;-61
2023/05/04 05:50:00;;;;;;;;;;;;;;;26.26;41.39;94519.84;5012202;28;7339;-64
2023/05/04 05:52:28;;;;;;;;;;;;;;;26.25;41.15;94513.59;4975253;28;8738;-64
2023/05/04 05:55:04;;;;;;;;;;;;;;;26.25;40.99;94508.06;4963310;28;9402;-63
2023/05/04 05:57:41;;;;;;;;;;;;;;;26.23;40.77;94518.13;4980501;28;7138;-62
2023/05/04 06:00:36;;;;;;;;;;;;;;;26.26;40.46;94515.06;4981365;28;8979;-63
2023/05/04 06:03:35;;;;;;;;;;;;;;;26.26;40.54;94517.06;4949980;28;9118;-63
2023/05/04 06:06:33;;;;;;;;;;;;;;;26.23;41.21;94515.34;4887231;29;9373;-64
2023/05/04 06:09:02;;;;;;;;;;;;;;;26.20;40.70;94511.63;4788421;29;7183;-63
2023/05/04 06:11:30;;;;;;;;;;;;;;;26.16;40.84;94508.38;4800389;29;8995;-63
2023/05/04 06:13:59;;;;;;;;;;;;;;;26.15;41.41;94509.63;4786358;29;7042;-63
2023/05/04 06:16:27;;;;;;;;;;;;;;;26.20;40.87;94508.09;4784293;29;9147;-63
2023/05/04 06:18:53;;;;;;;;;;;;;;;26.19;40.87;94504.59;4784322;29;9360;-65
2023/05/04 06:21:20;;;;;;;;;;;;;;;26.19;41.72;94507.34;4782749;29;9009;-63
2023/05/04 06:23:54;;;;;;;;;;;;;;;26.21;40.92;94498.59;4787430;29;8446;-63
2023/05/04 06:26:21;;;;;;;;;;;;;;;26.25;40.61;94501.81;4803711;29;8994;-63
2023/05/04 06:28:50;;;;;;;;;;;;;;;26.25;41.51;94496.28;4811838;29;8765;-64
2023/05/04 06:31:32;;;;;;;;;;;;;;;26.24;40.88;94495.53;4823395;29;7045;-63
2023/05/04 06:33:58;;;;;;;;;;;;;;;26.23;40.98;94505.06;4818152;29;7259;-63
2023/05/04 06:36:33;;;;;;;;;;;;;;;26.26;41.62;94504.03;4813312;29;7432;-63
2023/05/04 06:38:59;;;;;;;;;;;;;;;26.27;40.89;94499.28;4826394;29;7046;-63
2023/05/04 06:41:27;;;;;;;;;;;;;;;26.25;40.92;94496.28;4880358;29;8928;-63
2023/05/04 06:43:53;;;;;;;;;;;;;;;26.25;41.44;94497.06;4914673;29;8325;-64
2023/05/04 06:46:19;;;;;;;;;;;;;;;26.27;41.10;94493.78;5024787;28;9198;-63
2023/05/04 06:48:48;;;;;;;;;;;;;;;26.29;41.25;94499.53;5025472;28;7227;-64
2023/05/04 06:51:15;;;;;;;;;;;;;;;26.26;41.31;94492.25;5028309;28;7009;-64
2023/05/04 06:53:42;;;;;;;;;;;;;;;26.24;41.10;94495.53;5022412;28;7300;-63
2023/05/04 06:56:42;;;;;;;;;;;;;;;26.23;41.83;94493.31;5026608;28;9221;-64
2023/05/04 06:59:08;;;;;;;;;;;;;;;26.21;41.40;94495.81;4969802;28;8746;-63
2023/05/04 07:01:47;;;;;;;;;;;;;;;26.21;41.53;94512.38;4952032;28;7246;-63
2023/05/04 07:04:25;;;;;;;;;;;;;;;26.20;41.43;94499.81;4958331;28;7099;-64
2023/05/04 07:06:52;;;;;;;;;;;;;;;26.20;41.32;94502.59;4976018;28;9377;-64
2023/05/04 07:09:29;;;;;;;;;;;;;;;26.17;41.43;94496.84;4972760;28;7037;-63
2023/05/04 07:11:57;;;;;;;;;;;;;;;26.19;41.28;94501.09;4956999;28;9064;-64
2023/05/04 07:14:25;;;;;;;;;;;;;;;26.20;41.56;94499.81;4973465;28;9020;-63
2023/05/04 07:16:52;;;;;;;;;;;;;;;26.18;41.81;94492.09;4971800;28;7306;-63
2023/05/04 07:19:27;;;;;;;;;;;;;;;26.22;41.60;94511.84;4953794;28;7128;-64
2023/05/04 07:22:06;;;;;;;;;;;;;;;26.22;41.83;94508.34;4953270;28;7116;-63
2023/05/04 07:25:03;;;;;;;;;;;;;;;26.22;41.86;94502.81;4954921;28;8632;-63
2023/05/04 07:31:03;;;;;;;;;;;;;;;26.19;42.07;94509.38;4894771;29;7109;-64
2023/05/04 07:33:46;;;;;;;;;;;;;;;26.22;41.04;94505.56;4881613;29;9080;-64
2023/05/04 07:36:22;;;;;;;;;;;;;;;26.17;41.49;94499.59;4959866;28;8235;-64
2023/05/04 07:38:59;;;;;;;;;;;;;;;26.20;41.82;94500.59;4952675;28;9049;-65
2023/05/04 07:41:27;;;;;;;;;;;;;;;26.24;41.45;94503.06;4965967;28;9447;-64
2023/05/04 07:44:22;;;;;;;;;;;;;;;26.26;41.85;94492.25;4963489;28;9064;-64
2023/05/04 07:47:13;;;;;;;;;;;;;;;26.30;41.69;94487.22;4931903;29;8719;-64
2023/05/04 07:49:46;;;;;;;;;;;;;;;26.29;41.70;94483.72;4916520;28;9084;-63
2023/05/04 07:52:14;;;;;;;;;;;;;;;26.29;41.76;94489.25;4916562;29;9099;-63
2023/05/04 07:54:42;;;;;;;;;;;;;;;26.29;41.62;94485.72;4910162;28;7159;-65
2023/05/04 07:57:30;;;;;;;;;;;;;;;26.27;41.63;94491.78;4912752;29;9129;-64
2023/05/04 07:59:58;;;;;;;;;;;;;;;26.27;41.25;94482.75;4927900;28;7674;-65
2023/05/04 08:02:38;;;;;;;;;;;;;;;26.25;41.81;94488.78;4928172;28;8788;-64
2023/05/04 08:05:22;;;;;;;;;;;;;;;26.26;41.25;94481.22;4995274;28;9393;-64
2023/05/04 08:07:48;;;;;;;;;;;;;;;26.27;42.05;94479.97;4986059;28;9540;-65
2023/05/04 08:10:28;;;;;;;;;;;;;;;26.26;42.03;94481.22;4988279;28;7275;-65
2023/05/04 08:13:04;;;;;;;;;;;;;;;26.27;41.73;94489.00;4973437;28;9031;-64
2023/05/04 08:15:30;;;;;;;;;;;;;;;26.30;41.65;94481.69;4974307;28;7365;-64
2023/05/04 08:17:58;;;;;;;;;;;;;;;26.32;41.60;94484.72;4974423;28;7145;-64
2023/05/04 08:20:27;;;;;;;;;;;;;;;26.32;41.89;94490.22;4975142;28;9105;-64
2023/05/04 08:23:06;;;;;;;;;;;;;;;26.34;42.19;94476.69;5002622;28;7299;-65
2023/05/04 08:26:03;;;;;;;;;;;;;;;26.30;42.25;94478.94;5022631;28;7367;-64
2023/05/04 08:28:49;;;;;;;;;;;;;;;26.32;42.40;94479.94;5015786;28;9027;-63
2023/05/04 08:31:31;;;;;;;;;;;;;;;26.34;42.05;94482.19;5014279;28;9178;-63
2023/05/04 08:33:58;;;;;;;;;;;;;;;26.33;41.40;94475.91;5012916;28;7925;-64
2023/05/04 08:37:07;;;;;;;;;;;;;;;26.36;41.43;94477.63;5007793;28;9343;-64
2023/05/04 08:39:34;;;;;;;;;;;;;;;26.37;41.67;94481.16;5031424;28;9241;-64
2023/05/04 08:42:01;;;;;;;;;;;;;;;26.39;41.47;94484.13;5009782;28;9359;-65
2023/05/04 08:44:40;;;;;;;;;;;;;;;26.40;41.27;94485.66;5013303;28;7268;-64
2023/05/04 08:47:06;;;;;;;;;;;;;;;26.41;41.75;94489.88;5018912;28;7386;-64
2023/05/04 08:49:32;;;;;;;;;;;;;;;26.41;42.22;94485.13;5021051;28;8247;-64
2023/05/04 08:52:12;;;;;;;;;;;;;;;26.44;42.02;94486.13;5011566;28;7301;-65
2023/05/04 08:54:53;;;;;;;;;;;;;;;26.46;41.78;94483.59;5022911;28;7036;-65
2023/05/04 08:57:29;;;;;;;;;;;;;;;26.44;41.52;94486.88;5020625;28;7467;-65
2023/05/04 09:00:27;;;;;;;;;;;;;;;26.46;42.23;94486.34;5012637;28;7199;-65
2023/05/04 09:03:04;;;;;;;;;;;;;;;26.48;42.61;94478.31;5001733;28;7043;-64
2023/05/04 09:05:54;;;;;;;;;;;;;;;26.48;42.13;94481.06;4981888;28;7656;-65
2023/05/04 09:08:21;;;;;;;;;;;;;;;26.48;42.11;94481.81;4989034;28;9034;-65
2023/05/04 09:10:48;;;;;;;;;;;;;;;26.50;42.20;94473.78;4989325;28;7275;-65
2023/05/04 09:13:34;;;;;;;;;;;;;;;26.51;41.84;94478.00;4987625;28;6946;-65
2023/05/04 09:16:00;;;;;;;;;;;;;;;26.52;42.10;94478.75;4995105;28;9005;-65
2023/05/04 09:18:37;;;;;;;;;;;;;;;26.51;41.37;94480.03;4988888;28;8723;-64
2023/05/04 09:21:03;;;;;;;;;;;;;;;26.51;41.96;94477.28;4989408;28;7247;-64
2023/05/04 09:23:53;;;;;;;;;;;;;;;26.52;41.71;94476.00;4989870;28;9020;-65
2023/05/04 09:26:45;;;;;;;;;;;;;;;26.53;41.35;94478.28;4982239;28;7027;-64
2023/05/04 09:29:31;;;;;;;;;;;;;;;26.53;41.54;94475.50;4980564;28;9925;-63
2023/05/04 09:32:13;;;;;;;;;;;;;;;26.53;41.43;94472.00;4981725;28;8994;-65
2023/05/04 09:34:52;;;;;;;;;;;;;;;26.53;41.70;94469.25;4981903;28;9098;-64
2023/05/04 09:37:43;;;;;;;;;;;;;;;26.53;41.99;94477.50;4998830;28;7260;-64
2023/05/04 09:40:53;;;;;;;;;;;;;;;26.54;42.09;94474.22;5013300;28;8657;-64
2023/05/04 09:43:23;;;;;;;;;;;;;;;26.55;41.84;94469.47;5028255;28;7535;-65
2023/05/04 09:46:28;;;;;;;;;;;;;;;26.58;41.58;94468.41;5024111;28;7008;-64
2023/05/04 09:48:55;;;;;;;;;;;;;;;26.57;42.00;94472.47;4974789;28;7099;-64
2023/05/04 09:51:31;;;;;;;;;;;;;;;26.57;42.08;94475.22;4969405;28;7054;-65
2023/05/04 09:54:11;;;;;;;;;;;;;;;26.55;41.91;94470.22;4964146;28;9097;-62
2023/05/04 09:57:12;;;;;;;;;;;;;;;26.57;41.80;94473.22;4977755;28;7071;-63
2023/05/04 09:59:41;;;;;;;;;;;;;;;26.60;42.22;94474.19;4969646;28;7276;-62
2023/05/04 10:02:19;;;;;;;;;;;;;;;26.61;42.11;94476.44;4983692;28;7097;-63
2023/05/04 10:05:16;;;;;;;;;;;;;;;26.63;41.62;94476.66;4969822;28;9776;-64
2023/05/04 10:07:59;;;;;;;;;;;;;;;26.64;41.44;94477.41;4954827;28;8821;-64
2023/05/04 10:10:38;;;;;;;;;;;;;;;26.64;41.79;94469.13;4966633;28;7295;-64
2023/05/04 10:13:11;;;;;;;;;;;;;;;26.64;41.72;94478.16;4970451;28;8604;-64
2023/05/04 10:15:58;;;;;;;;;;;;;;;26.66;41.70;94477.66;4972731;28;7246;-65
2023/05/04 10:19:03;;;;;;;;;;;;;;;26.67;41.31;94477.13;4971372;28;7290;-65
2023/05/04 10:21:41;;;;;;;;;;;;;;;26.67;41.22;94473.59;4986279;28;9040;-65
2023/05/04 10:24:36;;;;;;;;;;;;;;;26.66;40.99;94478.41;4994296;28;7660;-64
2023/05/04 10:27:43;;;;;;;;;;;;;;;26.68;41.62;94477.88;4989988;28;9067;-65
2023/05/04 10:30:21;;;;;;;;;;;;;;;26.68;41.76;94467.59;4884064;29;7131;-65
2023/05/04 10:33:00;;;;;;;;;;;;;;;26.69;41.98;94465.56;4893022;29;9055;-65
2023/05/04 10:36:05;;;;;;;;;;;;;;;26.71;41.52;94465.78;4893333;29;7118;-65
2023/05/04 10:38:35;;;;;;;;;;;;;;;26.71;41.50;94463.03;4905470;29;9276;-66
2023/05/04 10:41:18;;;;;;;;;;;;;;;26.71;41.19;94465.78;4891588;29;7375;-66
2023/05/04 10:44:41;;;;;;;;;;;;;;;26.72;41.54;94462.53;4895145;29;9675;-66
2023/05/04 10:47:07;;;;;;;;;;;;;;;26.70;41.16;94464.31;4921257;29;7272;-66
2023/05/04 10:49:46;;;;;;;;;;;;;;;26.70;41.59;94450.50;4909406;29;8809;-66
2023/05/04 10:52:47;;;;;;;;;;;;;;;26.73;41.39;94453.00;4904391;29;7046;-66
2023/05/04 10:55:24;;;;;;;;;;;;;;;26.72;41.20;94442.47;4923350;29;7190;-66
2023/05/04 10:57:55;;;;;;;;;;;;;;;26.73;40.64;94452.28;4925469;29;9023;-66
2023/05/04 11:00:37;;;;;;;;;;;;;;;26.75;41.13;94447.00;4907970;29;8953;-66
2023/05/04 11:03:06;;;;;;;;;;;;;;;26.75;41.12;94436.69;4909401;29;7200;-66
2023/05/04 11:05:53;;;;;;;;;;;;;;;26.77;41.09;94441.69;4928102;29;9046;-65
2023/05/04 11:08:48;;;;;;;;;;;;;;;26.77;41.04;94441.69;5021530;28;9354;-66
2023/05/04 11:11:36;;;;;;;;;;;;;;;26.78;40.95;94432.13;4985752;28;7034;-65
2023/05/04 11:14:04;;;;;;;;;;;;;;;26.76;41.08;94429.91;5007793;28;7041;-65
2023/05/04 11:16:42;;;;;;;;;;;;;;;26.76;40.54;94429.16;4984007;28;7392;-65
2023/05/04 11:19:19;;;;;;;;;;;;;;;26.77;40.69;94433.41;4987933;28;8088;-65
2023/05/04 11:21:46;;;;;;;;;;;;;;;26.78;40.59;94435.66;4994148;28;9241;-65
2023/05/04 11:24:45;;;;;;;;;;;;;;;26.78;40.13;94432.91;4990267;28;7280;-66
2023/05/04 11:27:29;;;;;;;;;;;;;;;26.74;40.50;94429.69;4963696;28;7468;-65
2023/05/04 11:29:57;;;;;;;;;;;;;;;26.76;40.74;94434.66;4948145;28;8902;-66
2023/05/04 11:32:36;;;;;;;;;;;;;;;26.77;40.81;94434.16;4949791;28;9067;-67
2023/05/04 11:35:03;;;;;;;;;;;;;;;26.79;40.73;94428.88;4969105;28;9685;-66
2023/05/04 11:37:30;;;;;;;;;;;;;;;26.80;40.10;94419.31;4968412;28;9405;-66
2023/05/04 11:39:58;;;;;;;;;;;;;;;26.81;40.34;94417.31;4970774;28;7253;-65
2023/05/04 11:42:46;;;;;;;;;;;;;;;26.79;40.71;94411.56;4972707;28;7122;-66
2023/05/04 11:45:40;;;;;;;;;;;;;;;26.77;40.53;94416.88;4949430;28;7262;-65
2023/05/04 11:48:08;;;;;;;;;;;;;;;26.79;40.19;94409.56;4974248;28;7049;-64
2023/05/04 11:51:02;;;;;;;;;;;;;;;26.81;40.18;94411.81;4974159;28;7427;-64
2023/05/04 11:53:40;;;;;;;;;;;;;;;26.80;40.82;94413.06;4975156;28;9032;-64
2023/05/04 11:56:08;;;;;;;;;;;;;;;26.82;39.87;94410.53;4990419;28;7217;-64
2023/05/04 11:58:46;;;;;;;;;;;;;;;26.82;40.03;94410.53;4967011;28;8733;-65
2023/05/04 12:01:33;;;;;;;;;;;;;;;26.85;40.38;94409.50;4976470;28;9553;-63
2023/05/04 12:04:33;;;;;;;;;;;;;;;26.87;39.58;94412.47;5003821;28;8821;-65
2023/05/04 12:07:10;;;;;;;;;;;;;;;26.86;39.74;94406.22;4961172;28;7477;-65
2023/05/04 12:10:08;;;;;;;;;;;;;;;26.84;40.10;94403.22;4956018;28;7039;-64
2023/05/04 12:12:35;;;;;;;;;;;;;;;26.83;40.23;94403.75;4982171;28;7029;-64
2023/05/04 12:15:31;;;;;;;;;;;;;;;26.88;40.23;94397.44;4954228;28;7220;-65
2023/05/04 12:18:30;;;;;;;;;;;;;;;26.96;39.63;94403.84;4968756;28;7348;-65
2023/05/04 12:21:07;;;;;;;;;;;;;;;27.01;39.79;94399.53;4898076;29;9211;-65
2023/05/04 12:23:47;;;;;;;;;;;;;;;27.01;39.68;94391.25;4909096;29;7359;-65
2023/05/04 12:26:34;;;;;;;;;;;;;;;27.06;39.77;94399.47;4912701;29;9447;-65
2023/05/04 12:29:15;;;;;;;;;;;;;;;27.09;39.47;94386.63;4907094;29;7005;-65
2023/05/04 12:32:32;;;;;;;;;;;;;;;27.11;39.32;94389.63;4913755;29;7122;-65
2023/05/04 12:35:18;;;;;;;;;;;;;;;27.16;39.19;94384.03;4886802;29;7025;-65
2023/05/04 12:37:56;;;;;;;;;;;;;;;27.18;38.97;94384.25;4886946;29;7028;-64
2023/05/04 12:40:46;;;;;;;;;;;;;;;27.19;39.30;94382.97;4883075;29;9894;-65
2023/05/04 12:43:48;;;;;;;;;;;;;;;27.21;39.06;94380.44;4896452;28;6975;-65
2023/05/04 12:46:16;;;;;;;;;;;;;;;27.23;38.97;94371.66;4913608;29;8783;-64
2023/05/04 12:49:21;;;;;;;;;;;;;;;27.26;38.91;94376.88;4910315;29;7263;-64
2023/05/04 12:51:59;;;;;;;;;;;;;;;27.29;39.09;94375.84;4913841;28;9010;-64
2023/05/04 12:54:36;;;;;;;;;;;;;;;27.31;38.63;94378.81;4924660;28;7038;-64
2023/05/04 12:57:18;;;;;;;;;;;;;;;27.33;38.88;94370.75;4952778;28;7250;-64
2023/05/04 12:59:46;;;;;;;;;;;;;;;27.31;38.81;94362.25;4985149;28;9071;-64
2023/05/04 13:02:39;;;;;;;;;;;;;;;27.34;38.63;94366.72;4988473;28;7043;-64
2023/05/04 13:05:07;;;;;;;;;;;;;;;27.37;38.68;94365.69;4983659;28;7500;-65
2023/05/04 13:07:33;;;;;;;;;;;;;;;27.39;38.60;94357.63;4969620;28;9110;-65
2023/05/04 13:10:00;;;;;;;;;;;;;;;27.39;38.77;94354.88;4988952;28;7148;-66
2023/05/04 13:12:28;;;;;;;;;;;;;;;27.41;39.01;94357.84;5022492;28;7331;-65
2023/05/04 13:14:56;;;;;;;;;;;;;;;27.45;38.96;94360.31;5012657;28;9168;-65
2023/05/04 13:17:22;;;;;;;;;;;;;;;27.45;38.86;94350.00;5024318;28;7067;-65
2023/05/04 13:19:48;;;;;;;;;;;;;;;27.46;38.70;94348.75;5019651;28;9022;-65
2023/05/04 13:22:16;;;;;;;;;;;;;;;27.47;38.74;94350.22;5031812;28;8709;-64
2023/05/04 13:24:42;;;;;;;;;;;;;;;27.47;38.26;94336.41;5022661;28;9175;-65
2023/05/04 13:27:11;;;;;;;;;;;;;;;27.51;38.05;94336.84;5014777;28;8256;-64
2023/05/04 13:29:40;;;;;;;;;;;;;;;27.53;38.43;94334.31;5018049;28;9042;-64
2023/05/04 13:32:13;;;;;;;;;;;;;;;27.51;38.33;94331.34;5029612;28;7229;-64
2023/05/04 13:34:42;;;;;;;;;;;;;;;27.55;38.19;94326.28;5031167;28;7211;-65
2023/05/04 13:37:19;;;;;;;;;;;;;;;27.56;38.50;94330.50;5030307;28;9143;-64
2023/05/04 13:39:58;;;;;;;;;;;;;;;27.57;37.83;94315.44;5039125;28;7404;-65
2023/05/04 13:42:33;;;;;;;;;;;;;;;27.59;37.71;94315.66;5031988;28;7092;-64
2023/05/04 13:45:05;;;;;;;;;;;;;;;27.62;37.91;94319.38;5023453;28;9017;-65
2023/05/04 13:47:51;;;;;;;;;;;;;;;27.64;37.63;94309.28;5026953;28;9042;-64
2023/05/04 13:50:32;;;;;;;;;;;;;;;27.67;37.74;94310.25;5037587;28;9431;-65
2023/05/04 13:53:12;;;;;;;;;;;;;;;27.69;37.47;94298.69;5023340;28;9011;-64
2023/05/04 13:55:51;;;;;;;;;;;;;;;27.71;37.19;94304.44;5021077;28;9016;-65
2023/05/04 13:58:17;;;;;;;;;;;;;;;27.73;37.30;94299.84;5044661;28;9646;-64